createdAt,value
2024-03-02T00:01:36.248Z,10.20
2024-03-02T00:04:07.642Z,10.20
2024-03-02T00:06:34.808Z,10.20
2024-03-02T00:09:03.965Z,10.20
2024-03-02T00:11:30.818Z,10.20
2024-03-02T00:13:57.806Z,10.20
2024-03-02T00:16:25.301Z,10.10
2024-03-02T00:18:52.334Z,10.10
2024-03-02T00:21:21.364Z,10.10
2024-03-02T00:23:53.018Z,10.10
2024-03-02T00:26:20.098Z,10.10
2024-03-02T00:28:46.877Z,10.10
2024-03-02T00:31:14.556Z,10.10
2024-03-02T00:33:44.838Z,10.00
2024-03-02T00:36:28.161Z,10.00
2024-03-02T00:38:55.726Z,10.00
2024-03-02T00:41:30.959Z,10.00
2024-03-02T00:44:04.835Z,10.00
2024-03-02T00:46:41.254Z,10.00
2024-03-02T00:49:21.960Z,10.00
2024-03-02T00:51:50.444Z,10.60
2024-03-02T00:54:25.532Z,9.90
2024-03-02T00:56:53.662Z,9.90
2024-03-02T00:59:20.369Z,9.90
2024-03-02T01:01:47.217Z,9.90
2024-03-02T01:04:15.162Z,9.90
2024-03-02T01:06:43.513Z,9.90
2024-03-02T01:09:13.959Z,9.90
2024-03-02T01:11:41.131Z,9.90
2024-03-02T01:14:08.002Z,9.90
2024-03-02T01:16:34.796Z,9.90
2024-03-02T01:19:02.723Z,9.90
2024-03-02T01:21:29.632Z,9.90
2024-03-02T01:23:56.377Z,10.00
2024-03-02T01:26:23.112Z,9.90
2024-03-02T01:28:49.835Z,10.00
2024-03-02T01:31:16.636Z,10.00
2024-03-02T01:33:44.011Z,10.00
2024-03-02T01:36:10.860Z,10.00
2024-03-02T01:38:37.702Z,10.10
2024-03-02T01:41:06.887Z,10.00
2024-03-02T01:43:35.195Z,10.60
2024-03-02T01:46:05.098Z,10.00
2024-03-02T01:48:32.510Z,10.00
2024-03-02T01:50:59.500Z,10.10
2024-03-02T01:53:26.366Z,10.10
2024-03-02T01:55:53.122Z,10.10
2024-03-02T01:58:19.994Z,10.10
2024-03-02T02:00:46.870Z,10.10
2024-03-02T02:03:14.173Z,10.10
2024-03-02T02:05:43.346Z,10.10
2024-03-02T02:08:10.132Z,10.10
2024-03-02T02:10:37.657Z,10.10
2024-03-02T02:13:04.652Z,10.10
2024-03-02T02:15:32.199Z,10.10
2024-03-02T02:18:00.289Z,10.10
2024-03-02T02:20:28.168Z,10.10
2024-03-02T02:23:05.440Z,10.10
2024-03-02T02:25:32.261Z,10.10
2024-03-02T02:27:59.817Z,10.10
2024-03-02T02:30:32.857Z,10.20
2024-03-02T02:33:01.032Z,10.20
2024-03-02T02:35:28.793Z,10.10
2024-03-02T02:37:57.831Z,10.10
2024-03-02T02:40:24.982Z,10.10
2024-03-02T02:42:55.103Z,10.10
2024-03-02T02:45:22.273Z,10.10
2024-03-02T02:47:49.197Z,10.10
2024-03-02T02:50:16.578Z,10.10
2024-03-02T02:52:44.347Z,10.10
2024-03-02T02:55:12.825Z,10.10
2024-03-02T02:57:44.551Z,10.10
2024-03-02T03:00:16.700Z,10.10
2024-03-02T03:02:50.282Z,10.10
2024-03-02T03:05:18.493Z,10.10
2024-03-02T03:07:45.893Z,10.10
2024-03-02T03:10:14.046Z,10.00
2024-03-02T03:12:42.960Z,10.00
2024-03-02T03:15:11.216Z,10.00
2024-03-02T03:17:38.744Z,10.00
2024-03-02T03:20:12.138Z,10.00
2024-03-02T03:22:39.959Z,10.00
2024-03-02T03:25:09.275Z,10.00
2024-03-02T03:27:36.873Z,9.90
2024-03-02T03:30:04.234Z,9.90
2024-03-02T03:32:31.425Z,9.90
2024-03-02T03:34:58.193Z,9.80
2024-03-02T03:37:26.843Z,9.80
2024-03-02T03:39:53.772Z,9.80
2024-03-02T03:42:20.639Z,9.70
2024-03-02T03:44:47.375Z,9.70
2024-03-02T03:47:14.099Z,9.70
2024-03-02T03:49:40.832Z,9.70
2024-03-02T03:52:07.647Z,9.60
2024-03-02T03:54:38.207Z,9.60
2024-03-02T03:57:05.807Z,9.50
2024-03-02T03:59:32.558Z,9.50
2024-03-02T04:01:59.314Z,9.50
2024-03-02T04:04:26.043Z,9.40
2024-03-02T04:06:52.824Z,9.40
2024-03-02T04:09:19.606Z,9.40
2024-03-02T04:11:46.478Z,9.40
2024-03-02T04:14:13.616Z,9.40
2024-03-02T04:16:40.778Z,9.40
2024-03-02T04:19:07.542Z,9.30
2024-03-02T04:21:34.369Z,9.30
2024-03-02T04:24:01.151Z,9.30
2024-03-02T04:26:29.475Z,9.30
2024-03-02T04:28:56.212Z,9.50
2024-03-02T04:31:23.216Z,9.40
2024-03-02T04:33:50.202Z,9.40
2024-03-02T04:36:17.159Z,9.40
2024-03-02T04:38:43.918Z,9.40
2024-03-02T04:41:10.691Z,9.40
2024-03-02T04:43:37.533Z,9.40
2024-03-02T04:46:06.069Z,9.40
2024-03-02T04:48:33.185Z,9.40
2024-03-02T04:50:59.910Z,9.40
2024-03-02T04:53:26.652Z,9.40
2024-03-02T04:56:11.300Z,9.40
2024-03-02T04:58:38.033Z,9.50
2024-03-02T05:01:05.804Z,9.50
2024-03-02T05:03:34.968Z,9.40
2024-03-02T05:06:09.708Z,9.40
2024-03-02T05:08:36.505Z,9.40
2024-03-02T05:11:21.961Z,9.40
2024-03-02T05:13:48.831Z,9.40
2024-03-02T05:16:15.548Z,9.40
2024-03-02T05:18:42.296Z,9.40
2024-03-02T05:21:09.244Z,9.40
2024-03-02T05:23:35.970Z,9.40
2024-03-02T05:26:06.754Z,9.40
2024-03-02T05:28:33.533Z,9.50
2024-03-02T05:31:00.426Z,9.40
2024-03-02T05:33:32.437Z,9.40
2024-03-02T05:35:59.529Z,9.50
2024-03-02T05:38:26.455Z,9.50
2024-03-02T05:40:53.209Z,9.50
2024-03-02T05:43:20.998Z,9.50
2024-03-02T05:45:47.776Z,9.50
2024-03-02T05:48:14.494Z,9.50
2024-03-02T05:50:41.259Z,9.40
2024-03-02T05:53:08.528Z,9.50
2024-03-02T05:55:38.558Z,9.50
2024-03-02T05:58:08.313Z,9.40
2024-03-02T06:00:35.272Z,9.50
2024-03-02T06:03:02.555Z,9.50
2024-03-02T06:05:29.855Z,9.50
2024-03-02T06:07:56.625Z,9.50
2024-03-02T06:10:23.394Z,9.50
2024-03-02T06:12:50.272Z,9.50
2024-03-02T06:15:18.109Z,9.50
2024-03-02T06:17:44.864Z,9.50
2024-03-02T06:20:13.537Z,9.50
2024-03-02T06:22:40.322Z,9.50
2024-03-02T06:25:07.617Z,9.50
2024-03-02T06:27:34.575Z,9.50
2024-03-02T06:30:01.404Z,9.50
2024-03-02T06:32:28.157Z,9.50
2024-03-02T06:34:55.208Z,9.50
2024-03-02T06:37:21.942Z,9.60
2024-03-02T06:39:48.804Z,9.60
2024-03-02T06:42:15.637Z,9.60
2024-03-02T06:44:42.399Z,9.60
2024-03-02T06:47:09.132Z,9.60
2024-03-02T06:49:36.424Z,9.60
2024-03-02T06:52:03.308Z,9.60
2024-03-02T06:54:30.176Z,9.60
2024-03-02T06:56:56.918Z,9.60
2024-03-02T06:59:23.742Z,9.60
2024-03-02T07:01:50.475Z,9.60
2024-03-02T07:04:17.226Z,9.70
2024-03-02T07:06:44.009Z,9.70
2024-03-02T07:09:12.032Z,9.70
2024-03-02T07:11:38.980Z,9.70
2024-03-02T07:14:05.710Z,9.80
2024-03-02T07:16:34.294Z,9.90
2024-03-02T07:19:03.277Z,10.00
2024-03-02T07:21:30.566Z,10.20
2024-03-02T07:23:57.403Z,10.40
2024-03-02T07:28:54.140Z,10.90
2024-03-02T07:31:20.885Z,11.10
2024-03-02T07:33:48.079Z,11.40
2024-03-02T07:36:15.382Z,11.70
2024-03-02T07:38:42.240Z,11.90
2024-03-02T07:41:09.957Z,12.20
2024-03-02T07:43:36.841Z,12.50
2024-03-02T07:46:06.991Z,12.70
2024-03-02T07:48:36.156Z,12.90
2024-03-02T07:51:07.534Z,13.10
2024-03-02T07:53:34.283Z,13.20
2024-03-02T07:56:04.539Z,13.30
2024-03-02T07:58:32.130Z,13.30
2024-03-02T08:00:59.636Z,13.40
2024-03-02T08:03:26.466Z,13.30
2024-03-02T08:05:53.729Z,13.30
2024-03-02T08:08:20.524Z,13.30
2024-03-02T08:10:47.375Z,13.30
2024-03-02T08:13:14.844Z,13.30
2024-03-02T08:15:41.685Z,13.40
2024-03-02T08:18:08.490Z,13.50
2024-03-02T08:20:35.306Z,13.70
2024-03-02T08:23:02.299Z,13.90
2024-03-02T08:25:29.869Z,14.10
2024-03-02T08:27:56.697Z,14.30
2024-03-02T08:30:23.470Z,14.60
2024-03-02T08:32:50.300Z,14.80
2024-03-02T08:35:18.028Z,15.10
2024-03-02T08:37:44.993Z,15.30
2024-03-02T08:40:14.686Z,15.50
2024-03-02T08:42:43.595Z,15.80
2024-03-02T08:45:10.571Z,16.00
2024-03-02T08:47:37.633Z,16.20
2024-03-02T08:50:06.960Z,16.40
2024-03-02T08:52:33.735Z,16.70
2024-03-02T08:55:00.606Z,16.90
2024-03-02T08:57:28.592Z,17.20
2024-03-02T08:59:55.591Z,17.50
2024-03-02T09:02:22.331Z,17.80
2024-03-02T09:04:50.660Z,18.00
2024-03-02T09:07:17.406Z,18.30
2024-03-02T09:09:44.255Z,18.60
2024-03-02T09:12:12.036Z,18.80
2024-03-02T09:14:39.170Z,19.00
2024-03-02T09:17:05.964Z,19.20
2024-03-02T09:19:32.693Z,19.40
2024-03-02T09:21:59.911Z,19.60
2024-03-02T09:24:28.526Z,19.70
2024-03-02T09:26:55.424Z,19.90
2024-03-02T09:29:22.249Z,20.10
2024-03-02T09:31:50.587Z,20.20
2024-03-02T09:34:17.887Z,20.40
2024-03-02T09:36:45.062Z,20.50
2024-03-02T09:39:11.944Z,20.70
2024-03-02T09:41:39.724Z,20.80
2024-03-02T09:44:07.293Z,21.00
2024-03-02T09:46:34.207Z,21.20
2024-03-02T09:49:01.008Z,21.30
2024-03-02T09:51:28.969Z,21.40
2024-03-02T09:54:06.306Z,21.60
2024-03-02T09:56:40.516Z,21.80
2024-03-02T09:59:07.361Z,22.10
2024-03-02T10:01:34.162Z,22.20
2024-03-02T10:04:01.714Z,22.40
2024-03-02T10:06:29.931Z,22.60
2024-03-02T10:08:57.380Z,22.80
2024-03-02T10:11:37.801Z,23.00
2024-03-02T10:14:12.521Z,23.20
2024-03-02T10:16:40.892Z,23.40
2024-03-02T10:19:20.536Z,23.60
2024-03-02T10:21:51.915Z,23.80
2024-03-02T10:24:19.894Z,24.00
2024-03-02T10:26:46.694Z,24.20
2024-03-02T10:29:13.969Z,24.40
2024-03-02T10:31:42.391Z,24.50
2024-03-02T10:34:10.613Z,24.50
2024-03-02T10:36:38.645Z,24.60
2024-03-02T10:39:06.489Z,24.50
2024-03-02T10:41:37.827Z,24.50
2024-03-02T10:44:08.642Z,24.40
2024-03-02T10:46:37.649Z,24.30
2024-03-02T10:49:08.640Z,24.20
2024-03-02T10:51:37.802Z,24.00
2024-03-02T10:54:06.103Z,23.90
2024-03-02T10:56:45.480Z,23.70
2024-03-02T10:59:31.999Z,23.40
2024-03-02T11:02:02.136Z,23.30
2024-03-02T11:04:32.486Z,23.10
2024-03-02T11:07:02.553Z,22.90
2024-03-02T11:09:32.798Z,22.70
2024-03-02T11:12:14.367Z,22.60
2024-03-02T11:14:45.910Z,22.40
2024-03-02T11:17:19.283Z,22.30
2024-03-02T11:19:47.178Z,22.20
2024-03-02T11:22:15.839Z,22.00
2024-03-02T11:24:50.210Z,21.90
2024-03-02T11:27:46.206Z,21.80
2024-03-02T11:30:35.197Z,21.70
2024-03-02T11:33:13.335Z,21.50
2024-03-02T11:35:49.205Z,21.40
2024-03-02T11:38:15.979Z,21.30
2024-03-02T11:40:43.391Z,21.20
2024-03-02T11:43:11.824Z,21.10
2024-03-02T11:45:44.555Z,21.00
2024-03-02T11:48:14.775Z,20.90
2024-03-02T11:50:47.339Z,20.90
2024-03-02T11:53:14.887Z,20.80
2024-03-02T11:55:42.042Z,20.70
2024-03-02T11:58:09.290Z,20.60
2024-03-02T12:00:36.644Z,20.50
2024-03-02T12:03:05.205Z,20.40
2024-03-02T12:05:33.074Z,20.30
2024-03-02T12:08:01.982Z,20.30
2024-03-02T12:10:29.272Z,20.20
2024-03-02T12:13:04.094Z,20.20
2024-03-02T12:15:33.065Z,20.10
2024-03-02T12:18:02.670Z,20.00
2024-03-02T12:20:31.456Z,20.00
2024-03-02T12:23:05.698Z,19.90
2024-03-02T12:25:34.407Z,19.90
2024-03-02T12:28:02.733Z,19.90
2024-03-02T12:30:36.857Z,19.80
2024-03-02T12:33:05.476Z,19.70
2024-03-02T12:35:32.950Z,19.70
2024-03-02T12:37:59.768Z,19.60
2024-03-02T12:40:26.529Z,19.50
2024-03-02T12:42:53.410Z,19.50
2024-03-02T12:45:25.072Z,19.40
2024-03-02T12:47:52.968Z,19.30
2024-03-02T12:50:20.550Z,19.30
2024-03-02T12:52:54.727Z,19.20
2024-03-02T12:55:25.935Z,19.20
2024-03-02T12:57:53.771Z,19.10
2024-03-02T13:00:22.983Z,19.10
2024-03-02T13:02:51.596Z,19.10
2024-03-02T13:05:18.647Z,19.00
2024-03-02T13:07:47.969Z,19.00
2024-03-02T13:10:14.912Z,19.00
2024-03-02T13:12:42.801Z,18.90
2024-03-02T13:15:11.798Z,18.90
2024-03-02T13:17:40.492Z,18.90
2024-03-02T13:20:11.550Z,18.80
2024-03-02T13:22:38.835Z,18.80
2024-03-02T13:25:06.518Z,18.80
2024-03-02T13:27:33.888Z,18.70
2024-03-02T13:30:01.361Z,18.70
2024-03-02T13:32:28.537Z,18.70
2024-03-02T13:34:55.374Z,18.70
2024-03-02T13:37:22.871Z,18.60
2024-03-02T13:39:50.247Z,18.60
2024-03-02T13:42:17.349Z,18.60
2024-03-02T13:44:49.310Z,18.60
2024-03-02T13:47:16.313Z,18.50
2024-03-02T13:49:47.639Z,18.50
2024-03-02T13:52:14.974Z,18.40
2024-03-02T13:54:43.034Z,18.40
2024-03-02T13:57:11.053Z,18.40
2024-03-02T13:59:39.304Z,18.30
2024-03-02T14:02:07.358Z,18.30
2024-03-02T14:04:38.441Z,18.30
2024-03-02T14:07:09.681Z,18.20
2024-03-02T14:09:37.253Z,18.30
2024-03-02T14:12:05.650Z,18.20
2024-03-02T14:14:32.743Z,18.20
2024-03-02T14:17:04.413Z,18.10
2024-03-02T14:19:31.598Z,18.10
2024-03-02T14:21:58.567Z,18.00
2024-03-02T14:24:26.862Z,18.00
2024-03-02T14:26:58.407Z,18.00
2024-03-02T14:29:30.265Z,18.00
2024-03-02T14:31:57.083Z,18.00
2024-03-02T14:34:23.966Z,17.90
2024-03-02T14:36:50.955Z,17.90
2024-03-02T14:39:19.591Z,17.90
2024-03-02T14:41:46.474Z,17.90
2024-03-02T14:44:13.289Z,17.90
2024-03-02T14:46:41.696Z,17.80
2024-03-02T14:49:09.482Z,17.80
2024-03-02T14:51:36.309Z,17.80
2024-03-02T14:54:04.112Z,17.80
2024-03-02T14:56:31.149Z,17.70
2024-03-02T14:58:57.915Z,17.70
2024-03-02T15:01:25.833Z,17.80
2024-03-02T15:03:53.473Z,17.60
2024-03-02T15:06:20.392Z,17.60
2024-03-02T15:08:49.930Z,17.60
2024-03-02T15:11:16.896Z,17.60
2024-03-02T15:13:43.888Z,17.60
2024-03-02T15:16:10.843Z,17.50
2024-03-02T15:18:37.879Z,17.50
2024-03-02T15:21:05.056Z,17.60
2024-03-02T15:23:31.801Z,17.60
2024-03-02T15:25:58.598Z,17.60
2024-03-02T15:28:25.332Z,17.60
2024-03-02T15:30:55.036Z,17.60
2024-03-02T15:33:26.585Z,17.70
2024-03-02T15:35:56.760Z,17.70
2024-03-02T15:38:32.972Z,17.70
2024-03-02T15:41:05.482Z,17.70
2024-03-02T15:43:32.774Z,17.70
2024-03-02T15:46:00.193Z,17.70
2024-03-02T15:48:30.168Z,17.70
2024-03-02T15:50:57.590Z,17.70
2024-03-02T15:53:24.452Z,17.70
2024-03-02T15:55:51.804Z,17.70
2024-03-02T15:58:19.253Z,17.70
2024-03-02T16:00:46.073Z,17.70
2024-03-02T16:03:12.831Z,17.60
2024-03-02T16:05:39.683Z,17.60
2024-03-02T16:08:06.969Z,17.60
2024-03-02T16:10:33.723Z,17.60
2024-03-02T16:13:01.322Z,17.50
2024-03-02T16:15:32.132Z,17.50
2024-03-02T16:18:00.229Z,17.40
2024-03-02T16:20:28.220Z,17.40
2024-03-02T16:22:55.793Z,17.40
2024-03-02T16:25:25.708Z,17.30
2024-03-02T16:27:53.214Z,17.30
2024-03-02T16:30:25.408Z,17.20
2024-03-02T16:32:52.244Z,17.20
2024-03-02T16:35:18.979Z,17.20
2024-03-02T16:37:47.162Z,17.10
2024-03-02T16:40:16.590Z,17.10
2024-03-02T16:42:44.146Z,17.00
2024-03-02T16:45:10.963Z,17.00
2024-03-02T16:47:38.117Z,16.90
2024-03-02T16:50:10.690Z,16.90
2024-03-02T16:52:37.479Z,16.90
2024-03-02T16:55:05.468Z,16.80
2024-03-02T16:57:33.358Z,16.80
2024-03-02T17:00:00.328Z,16.70
2024-03-02T17:02:28.253Z,16.70
2024-03-02T17:04:55.040Z,16.60
2024-03-02T17:07:22.038Z,16.60
2024-03-02T17:09:48.985Z,16.60
2024-03-02T17:12:16.325Z,16.50
2024-03-02T17:14:43.209Z,16.50
2024-03-02T17:17:10.001Z,16.40
2024-03-02T17:19:36.814Z,16.30
2024-03-02T17:22:03.652Z,16.30
2024-03-02T17:24:30.430Z,16.20
2024-03-02T17:26:59.140Z,16.20
2024-03-02T17:29:25.915Z,16.20
2024-03-02T17:31:52.647Z,16.10
2024-03-02T17:34:19.458Z,16.10
2024-03-02T17:36:46.302Z,16.00
2024-03-02T17:39:13.062Z,16.00
2024-03-02T17:41:39.835Z,16.00
2024-03-02T17:44:07.036Z,15.90
2024-03-02T17:46:33.771Z,15.90
2024-03-02T17:49:00.690Z,15.80
2024-03-02T17:51:27.535Z,15.80
2024-03-02T17:53:54.292Z,15.80
2024-03-02T17:56:21.199Z,15.70
2024-03-02T17:58:48.021Z,15.70
2024-03-02T18:01:16.450Z,15.60
2024-03-02T18:03:43.525Z,15.60
2024-03-02T18:06:10.396Z,15.50
2024-03-02T18:08:39.229Z,15.50
2024-03-02T18:11:07.707Z,15.50
2024-03-02T18:13:37.707Z,15.40
2024-03-02T18:16:06.567Z,15.40
2024-03-02T18:18:33.546Z,15.40
2024-03-02T18:21:00.344Z,15.30
2024-03-02T18:23:32.551Z,15.30
2024-03-02T18:25:59.339Z,15.20
2024-03-02T18:28:26.126Z,15.20
2024-03-02T18:30:52.984Z,15.20
2024-03-02T18:33:19.770Z,15.20
2024-03-02T18:35:46.555Z,15.10
2024-03-02T18:38:14.102Z,15.10
2024-03-02T18:40:41.389Z,15.10
2024-03-02T18:43:08.316Z,15.10
2024-03-02T18:45:35.371Z,15.10
2024-03-02T18:48:04.143Z,15.10
2024-03-02T18:50:33.934Z,15.10
2024-03-02T18:53:01.026Z,15.00
2024-03-02T18:55:31.197Z,15.00
2024-03-02T18:57:58.550Z,15.10
2024-03-02T19:00:25.950Z,15.00
2024-03-02T19:02:53.479Z,15.00
2024-03-02T19:05:20.269Z,15.00
2024-03-02T19:07:47.314Z,15.00
2024-03-02T19:10:14.250Z,15.00
2024-03-02T19:12:42.659Z,15.00
2024-03-02T19:15:10.629Z,15.00
2024-03-02T19:17:37.466Z,14.90
2024-03-02T19:20:04.520Z,14.90
2024-03-02T19:22:34.087Z,14.90
2024-03-02T19:25:02.499Z,14.90
2024-03-02T19:27:54.294Z,14.90
2024-03-02T19:30:21.139Z,14.90
2024-03-02T19:32:47.880Z,14.90
2024-03-02T19:35:14.838Z,14.80
2024-03-02T19:37:42.526Z,14.90
2024-03-02T19:40:11.209Z,14.80
2024-03-02T19:42:38.305Z,14.80
2024-03-02T19:45:06.165Z,14.80
2024-03-02T19:47:36.220Z,14.80
2024-03-02T19:50:05.274Z,14.70
2024-03-02T19:52:32.146Z,14.70
2024-03-02T19:54:59.009Z,14.70
2024-03-02T19:57:26.402Z,14.70
2024-03-02T19:59:53.228Z,14.60
2024-03-02T20:02:21.560Z,14.60
2024-03-02T20:04:48.684Z,14.60
2024-03-02T20:07:16.321Z,14.70
2024-03-02T20:09:43.412Z,14.60
2024-03-02T20:12:11.203Z,14.50
2024-03-02T20:14:38.013Z,14.50
2024-03-02T20:17:05.491Z,14.50
2024-03-02T20:19:32.230Z,14.50
2024-03-02T20:21:59.516Z,14.50
2024-03-02T20:24:26.556Z,14.50
2024-03-02T20:26:53.367Z,14.40
2024-03-02T20:29:20.138Z,14.40
2024-03-02T20:31:46.883Z,14.40
2024-03-02T20:34:15.761Z,14.40
2024-03-02T20:36:45.025Z,14.40
2024-03-02T20:39:12.724Z,14.40
2024-03-02T20:41:39.629Z,14.40
2024-03-02T20:44:06.888Z,14.30
2024-03-02T20:46:33.686Z,14.30
2024-03-02T20:49:00.677Z,14.30
2024-03-02T20:51:30.103Z,14.30
2024-03-02T20:53:57.987Z,14.30
2024-03-02T20:56:25.340Z,14.30
2024-03-02T20:58:52.082Z,14.30
2024-03-02T21:01:19.043Z,14.30
2024-03-02T21:03:46.167Z,14.30
2024-03-02T21:06:12.918Z,14.30
2024-03-02T21:08:40.039Z,14.30
2024-03-02T21:11:07.034Z,14.30
2024-03-02T21:13:33.859Z,14.30
2024-03-02T21:16:00.780Z,14.30
2024-03-02T21:18:27.673Z,14.30
2024-03-02T21:20:54.458Z,14.30
2024-03-02T21:23:21.342Z,14.20
2024-03-02T21:25:48.053Z,14.20
2024-03-02T21:28:15.065Z,14.20
2024-03-02T21:30:41.985Z,14.20
2024-03-02T21:33:08.741Z,14.20
2024-03-02T21:35:35.585Z,14.20
2024-03-02T21:38:08.239Z,14.20
2024-03-02T21:40:35.355Z,14.10
2024-03-02T21:43:02.216Z,14.10
2024-03-02T21:45:29.114Z,14.10
2024-03-02T21:47:55.890Z,14.10
2024-03-02T21:50:22.831Z,14.00
2024-03-02T21:52:54.408Z,14.00
2024-03-02T21:55:21.514Z,14.00
2024-03-02T21:57:49.066Z,14.00
2024-03-02T22:00:16.247Z,14.00
2024-03-02T22:02:43.009Z,13.90
2024-03-02T22:05:10.097Z,13.90
2024-03-02T22:07:36.869Z,13.90
2024-03-02T22:10:05.599Z,13.90
2024-03-02T22:12:32.482Z,13.90
2024-03-02T22:14:59.235Z,13.80
2024-03-02T22:17:29.151Z,13.80
2024-03-02T22:19:56.641Z,13.80
2024-03-02T22:22:23.366Z,13.80
2024-03-02T22:24:50.195Z,13.70
2024-03-02T22:27:16.987Z,13.70
2024-03-02T22:29:43.760Z,13.70
2024-03-02T22:32:10.519Z,13.60
2024-03-02T22:34:37.307Z,13.60
2024-03-02T22:37:04.688Z,13.60
2024-03-02T22:39:31.455Z,13.50
2024-03-02T22:41:58.168Z,13.50
2024-03-02T22:44:24.938Z,13.50
2024-03-02T22:46:52.475Z,13.40
2024-03-02T22:49:19.304Z,13.40
2024-03-02T22:51:46.817Z,13.40
2024-03-02T22:54:13.644Z,13.40
2024-03-02T22:56:40.398Z,13.30
2024-03-02T22:59:07.174Z,13.30
2024-03-02T23:01:34.087Z,13.30
2024-03-02T23:04:01.068Z,13.30
2024-03-02T23:06:27.991Z,13.20
2024-03-02T23:08:54.710Z,13.20
2024-03-02T23:11:21.561Z,13.20
2024-03-02T23:13:48.366Z,13.20
2024-03-02T23:16:15.233Z,13.20
2024-03-02T23:18:42.181Z,13.20
2024-03-02T23:21:08.957Z,13.20
2024-03-02T23:23:35.703Z,13.10
2024-03-02T23:26:08.425Z,13.10
2024-03-02T23:28:35.227Z,13.10
2024-03-02T23:31:07.770Z,13.10
2024-03-02T23:33:34.635Z,13.00
2024-03-02T23:36:05.359Z,13.00
2024-03-02T23:38:32.109Z,13.00
2024-03-02T23:41:19.145Z,13.00
2024-03-02T23:43:45.866Z,13.00
2024-03-02T23:46:12.842Z,12.90
2024-03-02T23:48:40.141Z,12.90
2024-03-02T23:51:06.973Z,12.90
2024-03-02T23:53:33.772Z,12.90
2024-03-02T23:56:14.888Z,12.80
2024-03-02T23:58:41.945Z,12.80
